SARC/CNQ METAR and TAF weather

Enter ICAO airport designator
Station Type Date Time Source
SARC METAR 2022/01/18 07:00 UTC NOAA

SARC 180700Z 02011KT 7000 NSC 32/17 Q1004


Station Type Date Time Source
SARC Decoded METAR 2022/01/18 07:00 UTC NOAA

Corrientes Aero., Argentina (SARC) 27-27S 058-46W 62M
Jan 18, 2022 - 02:00 AM EST / 2022.01.18 0700 UTC
Wind: from the NNE (020 degrees) at 13 MPH (11 KT):0
Visibility: 4 mile(s):0
Temperature: 89 F (32 C)
Dew Point: 62 F (17 C)
Relative Humidity: 40%
Pressure (altimeter): 29.65 in. Hg (1004 hPa)
ob: SARC 180700Z 02011KT 7000 NSC 32/17 Q1004
cycle: 7

Station Type Date Time Source
SARC TAF 2021/11/05 10:09 UTC NOAA

TAF TAF
AMD SARC 050945Z 0510/0606 18015KT 3000 TSRA FEW005 OVC040 FEW050CB TX28/0518Z TN20/0510Z
BECMG 0512/0514 6000 SHRA BKN015 OVC045 FEW045CB
BECMG 0519/0521 9999 BKN020 BKN100

Example: see airport list